Terminal Aerodrome Forecast
Issued by NWS

Home | Current Version | Previous Version | Text Only | Print | Product List | Glossary On
Versions: 1 2 3 4 5 6 7 8 9 10 11 12 13 14 15 16 17
000
FTUS45 KREV 231126
TAFMMH
TAF
KMMH 231126Z 2312/2412 34011KT P6SM VCSH SCT025 BKN045
     FM231600 10007KT P6SM VCSH SCT015 BKN025
     FM232000 25009KT P6SM VCSH SCT025 BKN040
     FM240000 31011KT 6SM -RA SCT020 BKN030
     FM240500 VRB04KT P6SM VCSH SCT030 BKN045=

USA.gov is the U.S. government's official web portal to all federal, state and local government web resources and services.